Time;durP1;ratioP1;P1;durP2;ratioP2;P2;SDS_P1;SDS_P2;PMS_P1;PMS_P2;Temp;Humidity;BMP_temperature;BMP_pressure;BME280_temperature;BME280_humidity;BME280_pressure;Samples;Min_cycle;Max_cycle;Signal;HPM_P1;HPM_P2
2021/12/21 00:02:05;;;;;;;7.33;4.90;;;1.30;99.90;;;;;;4989109;28;20970;-49
2021/12/21 00:04:31;;;;;;;11.50;5.33;;;1.30;99.90;;;;;;4994963;28;21041;-49
2021/12/21 00:06:59;;;;;;;6.00;4.93;;;1.30;99.90;;;;;;4991113;28;20556;-48
2021/12/21 00:09:26;;;;;;;9.10;5.67;;;1.30;99.90;;;;;;4993818;28;20492;-49
2021/12/21 00:11:52;;;;;;;10.07;6.07;;;1.20;99.90;;;;;;4993572;28;20522;-49
2021/12/21 00:14:25;;;;;;;5.43;4.93;;;1.30;99.90;;;;;;4991258;28;20931;-48
2021/12/21 00:17:10;;;;;;;7.37;4.83;;;1.30;99.90;;;;;;4993895;28;20471;-48
2021/12/21 00:19:49;;;;;;;7.00;5.10;;;1.30;99.90;;;;;;4993407;28;20460;-47
2021/12/21 00:22:45;;;;;;;6.20;4.73;;;1.20;99.90;;;;;;4991325;28;20465;-48
2021/12/21 00:25:10;;;;;;;8.60;5.57;;;1.30;99.90;;;;;;4991407;28;21012;-49
2021/12/21 00:27:37;;;;;;;9.13;5.07;;;1.20;99.90;;;;;;4990767;28;20456;-49
2021/12/21 00:30:05;;;;;;;9.37;5.20;;;1.20;99.90;;;;;;4994023;28;20580;-48
2021/12/21 00:32:31;;;;;;;9.87;5.10;;;1.20;99.90;;;;;;4991917;28;20507;-48
2021/12/21 00:34:58;;;;;;;6.70;4.60;;;1.20;99.90;;;;;;4992207;28;21009;-49
2021/12/21 00:37:27;;;;;;;7.20;5.23;;;1.20;99.90;;;;;;4988373;28;20560;-49
2021/12/21 00:39:55;;;;;;;9.67;5.00;;;1.20;99.90;;;;;;4993603;28;21013;-50
2021/12/21 00:42:22;;;;;;;5.23;4.73;;;1.20;99.90;;;;;;4992278;28;20493;-48
2021/12/21 00:44:48;;;;;;;8.47;4.07;;;1.30;99.90;;;;;;4991975;28;20596;-49
2021/12/21 00:47:16;;;;;;;5.43;4.83;;;1.20;99.90;;;;;;4990890;28;20924;-48
2021/12/21 00:49:46;;;;;;;5.07;4.43;;;1.20;99.90;;;;;;4985870;28;20488;-49
2021/12/21 00:52:13;;;;;;;7.33;4.77;;;1.10;99.90;;;;;;4991309;28;20449;-49
2021/12/21 00:54:42;;;;;;;6.80;5.00;;;1.10;99.90;;;;;;4986795;28;20576;-49
2021/12/21 00:57:09;;;;;;;6.73;4.53;;;1.10;99.90;;;;;;4990317;28;21297;-49
2021/12/21 00:59:36;;;;;;;5.50;4.40;;;1.10;99.90;;;;;;4992712;28;20946;-49
2021/12/21 01:02:03;;;;;;;5.70;3.93;;;1.00;99.90;;;;;;4991478;28;20555;-48
2021/12/21 01:04:34;;;;;;;8.40;4.47;;;1.00;99.90;;;;;;4991941;28;20571;-48
2021/12/21 01:07:06;;;;;;;6.23;4.23;;;0.90;99.90;;;;;;4990631;28;20460;-48
2021/12/21 01:10:08;;;;;;;7.27;5.10;;;0.90;99.90;;;;;;4986380;28;20476;-48
2021/12/21 01:12:48;;;;;;;7.27;4.50;;;1.00;99.90;;;;;;4990299;28;20494;-48
2021/12/21 01:15:24;;;;;;;6.80;4.40;;;1.00;99.90;;;;;;4992448;28;20460;-49
2021/12/21 01:17:56;;;;;;;7.83;4.13;;;1.00;99.90;;;;;;4978728;28;20465;-49
2021/12/21 01:20:35;;;;;;;7.10;4.97;;;1.00;99.90;;;;;;4988846;28;20460;-49
2021/12/21 01:25:49;;;;;;;5.27;3.90;;;1.00;99.90;;;;;;4974228;28;20464;-48
2021/12/21 01:28:23;;;;;;;5.90;4.30;;;1.10;99.90;;;;;;4988899;28;20456;-48
2021/12/21 01:30:58;;;;;;;6.60;4.63;;;1.10;99.90;;;;;;4988055;28;20495;-48
2021/12/21 01:33:40;;;;;;;5.70;4.47;;;1.10;99.90;;;;;;4987163;28;20468;-49
2021/12/21 01:36:15;;;;;;;5.23;4.20;;;1.10;99.90;;;;;;4983189;28;20490;-49
2021/12/21 01:38:50;;;;;;;6.37;4.33;;;1.10;99.90;;;;;;4980149;28;20463;-48
2021/12/21 01:41:27;;;;;;;8.73;4.70;;;1.20;99.90;;;;;;4991228;28;20857;-49
2021/12/21 01:44:06;;;;;;;6.10;4.17;;;1.20;99.90;;;;;;4988022;28;21104;-48
2021/12/21 01:49:37;;;;;;;6.30;4.23;;;1.20;99.90;;;;;;4988202;28;20483;-48
2021/12/21 01:52:04;;;;;;;6.97;4.23;;;1.20;99.90;;;;;;4987219;28;20470;-49
2021/12/21 01:54:30;;;;;;;4.67;3.97;;;1.20;99.90;;;;;;4988911;28;20576;-49
2021/12/21 01:56:57;;;;;;;5.13;4.70;;;1.20;99.90;;;;;;4990889;28;20547;-49
2021/12/21 01:59:25;;;;;;;6.47;4.57;;;1.30;99.90;;;;;;4988319;28;20544;-49
2021/12/21 02:01:51;;;;;;;11.27;5.13;;;1.30;99.90;;;;;;4987143;28;20492;-49
2021/12/21 02:04:19;;;;;;;5.37;4.60;;;1.30;99.90;;;;;;4989183;28;20480;-49
2021/12/21 02:06:46;;;;;;;4.97;4.47;;;1.30;99.90;;;;;;4990276;28;20551;-49
2021/12/21 02:09:12;;;;;;;5.93;4.37;;;1.30;99.90;;;;;;4988078;28;20477;-49
2021/12/21 02:11:39;;;;;;;7.73;4.90;;;1.40;99.90;;;;;;4982443;28;20890;-49
2021/12/21 02:14:09;;;;;;;6.03;4.00;;;1.40;99.90;;;;;;4991248;28;21084;-48
2021/12/21 02:16:46;;;;;;;5.80;4.93;;;1.30;99.90;;;;;;4990582;28;20561;-49
2021/12/21 02:19:21;;;;;;;6.80;4.60;;;1.30;94.80;;;;;;4989901;28;20555;-48
2021/12/21 02:21:52;;;;;;;8.50;4.87;;;1.30;99.90;;;;;;4987538;28;20467;-50
2021/12/21 02:24:24;;;;;;;6.70;5.03;;;1.30;99.90;;;;;;4975672;28;20480;-48
2021/12/21 02:26:55;;;;;;;6.37;5.40;;;1.30;99.90;;;;;;4988503;28;20547;-50
2021/12/21 02:29:28;;;;;;;11.50;5.70;;;1.30;99.90;;;;;;4985002;28;20541;-50
2021/12/21 02:31:55;;;;;;;6.30;5.03;;;1.30;99.90;;;;;;4985502;28;20803;-49
2021/12/21 02:34:23;;;;;;;10.23;5.80;;;1.30;99.90;;;;;;4990800;28;20578;-49
2021/12/21 02:36:53;;;;;;;6.00;5.10;;;1.40;99.90;;;;;;4988974;28;20930;-49
2021/12/21 02:39:20;;;;;;;9.57;4.83;;;1.40;99.90;;;;;;4985304;28;20966;-49
2021/12/21 02:41:47;;;;;;;5.30;4.80;;;1.30;99.90;;;;;;4986705;28;20496;-50
2021/12/21 02:44:16;;;;;;;8.50;5.27;;;1.30;99.90;;;;;;4988862;28;20516;-49
2021/12/21 02:46:43;;;;;;;9.20;5.13;;;1.30;99.90;;;;;;4984784;28;20540;-49
2021/12/21 02:49:11;;;;;;;11.70;5.50;;;1.20;99.90;;;;;;4991569;28;20536;-49
2021/12/21 02:51:40;;;;;;;6.47;5.00;;;1.30;99.90;;;;;;4980802;28;20523;-48
2021/12/21 02:54:08;;;;;;;11.87;4.80;;;1.30;99.90;;;;;;4990035;28;20543;-49
2021/12/21 02:56:34;;;;;;;9.33;5.43;;;1.30;99.90;;;;;;4990710;28;20496;-49
2021/12/21 02:59:01;;;;;;;7.97;5.63;;;1.30;99.90;;;;;;4990453;28;22202;-49
2021/12/21 03:01:28;;;;;;;5.93;4.93;;;1.30;99.90;;;;;;4987788;28;20500;-49
2021/12/21 03:03:55;;;;;;;8.90;5.30;;;1.20;99.90;;;;;;4990207;28;20527;-50
2021/12/21 03:09:14;;;;;;;7.23;5.10;;;1.30;99.90;;;;;;4990331;28;20444;-49
2021/12/21 03:11:55;;;;;;;6.20;5.60;;;1.30;99.90;;;;;;4993243;28;20480;-48
2021/12/21 03:14:22;;;;;;;7.17;5.70;;;1.20;99.90;;;;;;4992204;28;21093;-49
2021/12/21 03:16:48;;;;;;;7.33;5.50;;;1.20;99.90;;;;;;4992585;28;20457;-48
2021/12/21 03:19:15;;;;;;;7.90;5.70;;;1.20;99.90;;;;;;4992276;28;20492;-47
2021/12/21 03:21:41;;;;;;;7.53;6.07;;;1.20;99.90;;;;;;4988099;28;20484;-48
2021/12/21 03:24:09;;;;;;;8.07;5.63;;;1.30;99.90;;;;;;4993234;28;20512;-48
2021/12/21 03:26:36;;;;;;;8.83;6.00;;;1.30;99.90;;;;;;4983204;28;20556;-48
2021/12/21 03:29:06;;;;;;;7.40;6.03;;;1.20;99.90;;;;;;4991102;28;20499;-49
2021/12/21 03:31:33;;;;;;;6.23;5.63;;;1.20;99.90;;;;;;4991612;28;20520;-50
2021/12/21 03:34:00;;;;;;;6.50;5.90;;;1.20;99.90;;;;;;4993945;28;20910;-50
2021/12/21 03:36:26;;;;;;;8.80;6.50;;;1.30;99.90;;;;;;4993836;28;20476;-48
2021/12/21 03:38:58;;;;;;;6.23;5.80;;;1.20;99.90;;;;;;4991791;28;20541;-48
2021/12/21 03:41:25;;;;;;;7.50;6.53;;;1.30;99.90;;;;;;4992539;28;20456;-49
2021/12/21 03:43:51;;;;;;;9.17;6.43;;;1.30;99.90;;;;;;4992184;28;20500;-49
2021/12/21 03:46:19;;;;;;;10.40;7.00;;;1.30;99.90;;;;;;4987982;28;20524;-48
2021/12/21 03:48:48;;;;;;;7.00;6.10;;;1.30;99.90;;;;;;4994186;28;20495;-47
2021/12/21 03:51:16;;;;;;;7.90;6.97;;;1.30;99.90;;;;;;4991382;28;20587;-50
2021/12/21 03:53:43;;;;;;;14.53;6.17;;;1.30;99.90;;;;;;4991780;28;20993;-50
2021/12/21 03:56:33;;;;;;;7.60;6.53;;;1.30;99.90;;;;;;4991686;28;20491;-48
2021/12/21 03:58:59;;;;;;;9.93;6.97;;;1.40;99.90;;;;;;4989812;28;20965;-51
2021/12/21 04:01:27;;;;;;;9.80;6.60;;;1.40;99.90;;;;;;4992333;28;20944;-52
2021/12/21 04:03:54;;;;;;;9.10;7.00;;;1.40;99.90;;;;;;4991404;28;21088;-52
2021/12/21 04:06:20;;;;;;;10.90;6.90;;;1.40;99.90;;;;;;4991943;28;20448;-52
2021/12/21 04:08:47;;;;;;;11.40;7.17;;;1.40;99.90;;;;;;4991885;28;20499;-52
2021/12/21 04:11:14;;;;;;;8.70;7.50;;;1.40;99.90;;;;;;4990670;28;21194;-53
2021/12/21 04:13:40;;;;;;;10.90;6.80;;;1.40;99.90;;;;;;4989162;28;20527;-54
2021/12/21 04:16:07;;;;;;;11.40;7.53;;;1.40;99.90;;;;;;4989280;28;20945;-55
2021/12/21 04:18:38;;;;;;;7.60;6.43;;;1.40;99.90;;;;;;4984721;28;20621;-55
2021/12/21 04:21:05;;;;;;;12.00;7.13;;;1.40;99.90;;;;;;4987618;28;20452;-54
2021/12/21 04:23:32;;;;;;;9.93;7.90;;;1.40;99.90;;;;;;4989952;28;20488;-55
2021/12/21 04:25:59;;;;;;;8.37;6.97;;;1.40;99.90;;;;;;4991160;28;20497;-54
2021/12/21 04:28:26;;;;;;;9.33;7.10;;;1.40;99.90;;;;;;4979462;28;20573;-55
2021/12/21 04:30:52;;;;;;;7.33;5.50;;;1.40;99.90;;;;;;4990803;28;20576;-55
2021/12/21 04:33:19;;;;;;;7.90;6.90;;;1.40;99.90;;;;;;4988646;28;20544;-56
2021/12/21 04:35:47;;;;;;;12.20;7.20;;;1.50;99.90;;;;;;4986039;28;20904;-56
2021/12/21 04:38:21;;;;;;;10.87;6.50;;;1.50;99.90;;;;;;4985839;28;20461;-56
2021/12/21 04:40:50;;;;;;;9.77;7.80;;;1.40;99.90;;;;;;4987438;28;20576;-55
2021/12/21 04:43:17;;;;;;;13.67;8.83;;;1.40;99.90;;;;;;4990062;28;20476;-54
2021/12/21 04:45:44;;;;;;;14.23;8.00;;;1.40;99.90;;;;;;4988120;28;20469;-54
2021/12/21 04:48:10;;;;;;;13.23;7.90;;;1.40;99.90;;;;;;4991227;28;20547;-55
2021/12/21 04:50:37;;;;;;;11.30;8.10;;;1.40;99.90;;;;;;4989603;28;20571;-55
2021/12/21 04:53:05;;;;;;;14.27;8.70;;;1.40;99.90;;;;;;4990892;28;20492;-54
2021/12/21 04:55:31;;;;;;;15.00;9.33;;;1.40;99.90;;;;;;4989234;28;20492;-54
2021/12/21 04:57:59;;;;;;;12.33;9.50;;;1.40;99.90;;;;;;4988721;28;20497;-54
2021/12/21 05:00:26;;;;;;;13.30;8.70;;;1.40;99.90;;;;;;4989115;28;20497;-56
2021/12/21 05:02:53;;;;;;;11.33;8.60;;;1.50;99.90;;;;;;4989083;28;20492;-55
2021/12/21 05:05:19;;;;;;;11.67;8.03;;;1.50;99.90;;;;;;4991252;28;20496;-54
2021/12/21 05:07:51;;;;;;;20.23;8.57;;;1.50;99.90;;;;;;4989010;28;21162;-54
2021/12/21 05:10:20;;;;;;;14.20;9.63;;;1.50;99.90;;;;;;4989089;28;20476;-54
2021/12/21 05:12:47;;;;;;;11.80;8.20;;;1.50;99.90;;;;;;4990734;28;20468;-54
2021/12/21 05:15:13;;;;;;;12.93;8.03;;;1.50;99.90;;;;;;4989210;28;20523;-55
2021/12/21 05:17:40;;;;;;;19.30;8.27;;;1.50;99.90;;;;;;4987134;28;20500;-54
2021/12/21 05:20:07;;;;;;;15.40;9.60;;;1.50;99.90;;;;;;4985906;28;20493;-55
2021/12/21 05:22:34;;;;;;;12.30;8.30;;;1.50;99.90;;;;;;4991363;28;20492;-54
2021/12/21 05:25:00;;;;;;;12.33;8.17;;;1.50;99.90;;;;;;4991425;28;20534;-54
2021/12/21 05:27:28;;;;;;;12.37;8.80;;;1.50;99.90;;;;;;4989656;28;20495;-55
2021/12/21 05:29:55;;;;;;;14.80;9.20;;;1.40;99.90;;;;;;4983222;28;20485;-54
2021/12/21 05:32:22;;;;;;;13.77;8.90;;;1.50;99.90;;;;;;4989348;28;20570;-54
2021/12/21 05:34:49;;;;;;;15.00;9.10;;;1.50;99.90;;;;;;4991073;28;20488;-55
2021/12/21 05:37:15;;;;;;;14.37;8.70;;;1.50;99.90;;;;;;4988552;28;20500;-55
2021/12/21 05:39:53;;;;;;;13.23;8.70;;;1.50;99.90;;;;;;4988873;28;20495;-55
2021/12/21 05:42:20;;;;;;;17.30;9.00;;;1.50;99.90;;;;;;4985311;28;20502;-55
2021/12/21 05:44:49;;;;;;;14.87;9.00;;;1.50;99.90;;;;;;4982329;28;20520;-54
2021/12/21 05:47:16;;;;;;;17.37;9.17;;;1.50;99.90;;;;;;4989858;28;20950;-55
2021/12/21 05:49:43;;;;;;;16.13;9.10;;;1.60;99.90;;;;;;4990800;28;20512;-54
2021/12/21 05:52:09;;;;;;;15.30;8.60;;;1.60;99.90;;;;;;4989183;28;20484;-56
2021/12/21 05:54:36;;;;;;;13.43;9.10;;;1.50;99.90;;;;;;4985443;28;20519;-54
2021/12/21 05:57:04;;;;;;;15.57;9.97;;;1.50;99.90;;;;;;4989710;28;20492;-54
2021/12/21 05:59:30;;;;;;;16.83;9.60;;;1.60;99.90;;;;;;4983422;28;20480;-55
2021/12/21 06:01:58;;;;;;;14.90;9.73;;;1.60;99.90;;;;;;4989543;28;20551;-54
2021/12/21 06:04:25;;;;;;;11.50;8.80;;;1.60;99.90;;;;;;4989742;28;21009;-55
2021/12/21 06:06:52;;;;;;;14.33;10.43;;;1.60;99.90;;;;;;4990625;28;20857;-55
2021/12/21 06:09:19;;;;;;;18.10;8.40;;;1.60;99.90;;;;;;4992194;28;20687;-55
2021/12/21 06:11:51;;;;;;;12.20;9.10;;;1.60;99.90;;;;;;4989294;28;20550;-55
2021/12/21 06:14:50;;;;;;;13.53;8.67;;;1.60;99.90;;;;;;4987046;28;20492;-55
2021/12/21 06:23:01;;;;;;;16.50;10.40;;;1.70;99.90;;;;;;4983774;28;20491;-54
2021/12/21 06:25:40;;;;;;;23.73;10.00;;;1.60;99.90;;;;;;4988137;28;20468;-55
2021/12/21 06:28:08;;;;;;;16.27;8.63;;;1.60;99.90;;;;;;4990797;28;20468;-55
2021/12/21 06:30:37;;;;;;;14.90;10.07;;;1.60;99.90;;;;;;4988707;28;20572;-56
2021/12/21 06:33:06;;;;;;;21.77;11.30;;;1.60;99.90;;;;;;4988812;28;20468;-55
2021/12/21 06:35:33;;;;;;;18.67;9.50;;;1.70;99.90;;;;;;4990243;28;21089;-54
2021/12/21 06:38:01;;;;;;;12.90;8.60;;;1.60;99.90;;;;;;4988111;28;20551;-55
2021/12/21 06:40:28;;;;;;;14.27;9.23;;;1.70;99.90;;;;;;4990330;28;20566;-55
2021/12/21 06:42:55;;;;;;;14.23;10.00;;;1.60;99.90;;;;;;4993500;28;20461;-53
2021/12/21 06:45:30;;;;;;;16.87;9.60;;;1.70;99.90;;;;;;4988290;28;20470;-54
2021/12/21 06:51:15;;;;;;;17.40;10.43;;;1.70;72.00;;;;;;4967729;28;20527;-55
2021/12/21 06:53:43;;;;;;;13.80;9.70;;;1.60;99.90;;;;;;4964072;28;20539;-55
2021/12/21 06:56:10;;;;;;;19.73;10.27;;;1.60;99.90;;;;;;4980576;28;20506;-53
2021/12/21 06:58:37;;;;;;;19.27;10.10;;;1.60;99.90;;;;;;4989930;28;20515;-55
2021/12/21 07:01:05;;;;;;;18.37;9.47;;;1.60;99.90;;;;;;4991447;28;20500;-55
2021/12/21 07:03:32;;;;;;;16.67;10.67;;;1.60;99.90;;;;;;4991539;28;20513;-55
2021/12/21 07:06:02;;;;;;;18.40;9.57;;;1.70;99.90;;;;;;4991927;28;20519;-55
2021/12/21 07:08:31;;;;;;;14.20;10.57;;;1.60;99.90;;;;;;4986754;28;20547;-55
2021/12/21 07:11:11;;;;;;;11.97;9.60;;;1.60;99.90;;;;;;4989491;28;20476;-52
2021/12/21 07:19:07;;;;;;;16.00;9.80;;;1.60;99.90;;;;;;4990483;28;20523;-52
2021/12/21 07:21:35;;;;;;;13.47;8.70;;;1.70;99.90;;;;;;4994254;28;20896;-54
2021/12/21 07:24:02;;;;;;;15.53;10.30;;;1.70;99.90;;;;;;4983796;28;20571;-54
2021/12/21 07:26:28;;;;;;;15.07;10.50;;;1.70;99.90;;;;;;4991733;28;20507;-55
2021/12/21 07:28:55;;;;;;;11.20;6.80;;;1.70;99.90;;;;;;4991629;28;20460;-55
2021/12/21 07:31:22;;;;;;;11.90;8.37;;;1.70;41.90;;;;;;4992579;28;20516;-51
2021/12/21 07:33:48;;;;;;;12.93;8.50;;;1.60;48.90;;;;;;4991736;28;20535;-52
2021/12/21 07:36:15;;;;;;;10.67;8.10;;;1.60;31.10;;;;;;4990295;28;20518;-55
2021/12/21 07:38:43;;;;;;;11.03;7.53;;;1.70;32.60;;;;;;4991585;28;20503;-54
2021/12/21 07:41:09;;;;;;;8.77;6.90;;;1.60;45.40;;;;;;4992362;28;20499;-55
2021/12/21 07:43:36;;;;;;;12.33;6.20;;;1.60;45.00;;;;;;4987785;28;20542;-55
2021/12/21 07:46:03;;;;;;;9.33;5.77;;;1.60;54.70;;;;;;4991830;28;20978;-53
2021/12/21 07:48:30;;;;;;;7.60;6.27;;;1.70;64.00;;;;;;4992085;28;20850;-55
2021/12/21 07:50:57;;;;;;;12.50;7.03;;;1.70;77.10;;;;;;4993170;28;20503;-55
2021/12/21 07:53:24;;;;;;;7.23;6.13;;;1.70;72.50;;;;;;4990651;28;21061;-55
2021/12/21 07:55:52;;;;;;;8.37;7.47;;;1.70;76.50;;;;;;4993294;28;20507;-56
2021/12/21 07:58:19;;;;;;;10.60;7.87;;;1.70;73.40;;;;;;4990690;28;20555;-55
2021/12/21 08:00:46;;;;;;;13.90;8.90;;;1.70;65.20;;;;;;4993782;28;20523;-56
2021/12/21 08:03:15;;;;;;;10.40;8.27;;;1.70;63.00;;;;;;4989264;28;20484;-56
2021/12/21 08:05:44;;;;;;;14.90;7.77;;;1.70;66.20;;;;;;4987798;28;20476;-56
2021/12/21 08:08:15;;;;;;;14.40;8.17;;;1.70;63.00;;;;;;4989075;28;20465;-54
2021/12/21 08:10:45;;;;;;;10.17;8.00;;;1.80;53.20;;;;;;4985176;28;20467;-55
2021/12/21 08:13:14;;;;;;;8.37;6.93;;;1.80;77.30;;;;;;4990130;28;20488;-56
2021/12/21 08:15:40;;;;;;;8.83;6.57;;;1.80;94.50;;;;;;4989969;28;20471;-56
2021/12/21 08:18:07;;;;;;;9.47;7.13;;;1.80;93.70;;;;;;4991931;28;20547;-57
2021/12/21 08:20:35;;;;;;;17.83;7.10;;;1.80;95.60;;;;;;4983236;28;20489;-56
2021/12/21 08:23:02;;;;;;;9.50;6.50;;;1.80;96.20;;;;;;4985782;28;20811;-56
2021/12/21 08:25:29;;;;;;;5.50;5.00;;;1.80;99.90;;;;;;4989881;28;20484;-56
2021/12/21 08:27:56;;;;;;;10.70;7.30;;;1.90;99.90;;;;;;4985630;28;20954;-56
2021/12/21 08:30:25;;;;;;;7.93;6.57;;;1.80;99.90;;;;;;4990379;28;20492;-55
2021/12/21 08:32:52;;;;;;;11.13;6.50;;;1.90;99.90;;;;;;4989122;28;20569;-56
2021/12/21 08:35:19;;;;;;;8.83;6.20;;;1.80;99.90;;;;;;4987828;28;20593;-55
2021/12/21 08:37:51;;;;;;;9.80;6.30;;;1.80;99.90;;;;;;4989197;28;20465;-55
2021/12/21 08:40:17;;;;;;;12.40;6.87;;;1.80;99.90;;;;;;4992326;28;20460;-57
2021/12/21 08:42:46;;;;;;;8.00;6.57;;;1.80;99.90;;;;;;4989390;28;20519;-55
2021/12/21 08:45:13;;;;;;;13.20;6.30;;;1.80;99.90;;;;;;4986080;28;20481;-56
2021/12/21 08:47:41;;;;;;;7.97;5.53;;;1.80;99.90;;;;;;4982860;28;20918;-55
2021/12/21 08:50:11;;;;;;;6.53;5.77;;;1.80;99.90;;;;;;4980841;28;20555;-57
2021/12/21 08:52:38;;;;;;;6.77;6.13;;;1.80;99.90;;;;;;4985269;28;20512;-55
2021/12/21 08:55:06;;;;;;;6.90;6.27;;;1.80;99.90;;;;;;4985619;28;20580;-56
2021/12/21 08:57:33;;;;;;;6.93;5.80;;;1.80;99.90;;;;;;4984540;28;20497;-55
2021/12/21 09:00:00;;;;;;;7.20;6.03;;;1.80;99.90;;;;;;4990738;28;20453;-56
2021/12/21 09:02:29;;;;;;;8.77;6.00;;;1.80;99.90;;;;;;4991877;28;20511;-56
2021/12/21 09:04:57;;;;;;;7.80;5.93;;;1.80;99.90;;;;;;4980992;28;20476;-56
2021/12/21 09:07:24;;;;;;;6.17;5.07;;;1.90;99.90;;;;;;4973545;28;20481;-56
2021/12/21 09:09:50;;;;;;;8.13;6.33;;;1.90;99.90;;;;;;4985745;28;20503;-51
2021/12/21 09:12:17;;;;;;;6.03;5.20;;;1.80;99.90;;;;;;4992611;28;20539;-51
2021/12/21 09:14:43;;;;;;;5.43;5.00;;;1.80;99.90;;;;;;4992595;28;20483;-51
2021/12/21 09:17:10;;;;;;;7.70;5.00;;;1.90;99.90;;;;;;4990426;28;20460;-50
2021/12/21 09:19:37;;;;;;;6.00;4.90;;;2.00;99.90;;;;;;4981209;28;21014;-51
2021/12/21 09:22:05;;;;;;;6.10;5.50;;;2.00;99.90;;;;;;4990893;28;20511;-51
2021/12/21 09:24:31;;;;;;;7.83;6.30;;;2.00;99.90;;;;;;4980859;28;20974;-51
2021/12/21 09:26:59;;;;;;;10.00;6.50;;;2.00;99.90;;;;;;4973012;28;20481;-50
2021/12/21 09:29:25;;;;;;;7.83;6.10;;;2.10;99.90;;;;;;4978233;28;20465;-50
2021/12/21 09:31:52;;;;;;;7.80;6.40;;;2.00;99.90;;;;;;4985751;28;20643;-50
2021/12/21 09:34:18;;;;;;;7.77;6.50;;;2.00;99.90;;;;;;4989539;28;20932;-52
2021/12/21 09:36:45;;;;;;;6.20;5.00;;;2.00;99.90;;;;;;4992414;28;20523;-47
2021/12/21 09:39:13;;;;;;;7.03;6.20;;;1.90;99.90;;;;;;4990711;28;20515;-56
2021/12/21 09:41:40;;;;;;;6.87;6.13;;;1.90;99.90;;;;;;4991961;28;20480;-57
2021/12/21 09:44:07;;;;;;;8.53;7.07;;;1.80;99.90;;;;;;4991280;28;20464;-56
2021/12/21 09:46:33;;;;;;;8.00;6.23;;;1.80;99.90;;;;;;4990642;28;20464;-56
2021/12/21 09:49:00;;;;;;;10.53;5.80;;;1.80;99.90;;;;;;4992334;28;20440;-56
2021/12/21 09:51:27;;;;;;;8.13;5.77;;;1.80;99.90;;;;;;4989802;28;20493;-55
2021/12/21 09:53:56;;;;;;;10.00;6.30;;;1.80;99.90;;;;;;4983242;28;20480;-56
2021/12/21 09:56:24;;;;;;;5.90;4.50;;;1.90;99.90;;;;;;4982103;28;20922;-55
2021/12/21 09:58:52;;;;;;;6.67;5.27;;;1.80;99.90;;;;;;4988622;28;20471;-56
2021/12/21 10:01:21;;;;;;;7.33;5.43;;;1.70;99.90;;;;;;4991389;28;20484;-55
2021/12/21 10:03:47;;;;;;;5.57;5.03;;;1.70;99.90;;;;;;4987866;28;20575;-56
2021/12/21 10:06:15;;;;;;;5.80;5.30;;;1.70;99.90;;;;;;4985741;28;20496;-56
2021/12/21 10:08:42;;;;;;;5.97;5.43;;;1.70;99.90;;;;;;4980977;28;20460;-54
2021/12/21 10:11:19;;;;;;;7.00;6.30;;;1.70;99.90;;;;;;4985385;28;20876;-55
2021/12/21 10:13:47;;;;;;;6.23;5.73;;;1.60;99.90;;;;;;4984688;28;21357;-48
2021/12/21 10:16:18;;;;;;;7.40;5.20;;;1.60;99.90;;;;;;4981302;28;20472;-48
2021/12/21 10:18:45;;;;;;;6.40;5.70;;;1.70;99.90;;;;;;4984671;28;20504;-47
2021/12/21 10:21:13;;;;;;;7.33;6.37;;;1.60;99.90;;;;;;4986418;28;20894;-47
2021/12/21 10:23:42;;;;;;;5.60;5.10;;;1.60;99.90;;;;;;4981192;28;21068;-48
2021/12/21 10:26:11;;;;;;;6.37;5.87;;;1.50;99.90;;;;;;4982202;28;20497;-47
2021/12/21 10:28:40;;;;;;;6.23;5.63;;;1.50;99.90;;;;;;4986008;28;20495;-47
2021/12/21 10:31:10;;;;;;;7.50;6.20;;;1.50;99.90;;;;;;4979963;28;20518;-47
2021/12/21 10:33:39;;;;;;;6.17;5.33;;;1.40;99.90;;;;;;4978336;28;20484;-46
2021/12/21 10:36:08;;;;;;;8.60;5.67;;;1.40;99.90;;;;;;4976156;28;20491;-47
2021/12/21 10:38:37;;;;;;;6.40;5.63;;;1.40;99.90;;;;;;4980267;28;20514;-47
2021/12/21 10:41:16;;;;;;;20.37;13.40;;;1.40;99.90;;;;;;4980471;28;22475;-48
2021/12/21 10:43:43;;;;;;;7.40;6.20;;;1.50;99.90;;;;;;4978179;28;20487;-48
2021/12/21 10:46:11;;;;;;;6.60;6.00;;;1.40;99.90;;;;;;4980943;28;20564;-48
2021/12/21 10:48:46;;;;;;;6.07;5.47;;;1.40;99.90;;;;;;4980750;28;20826;-48
2021/12/21 10:51:15;;;;;;;7.63;6.00;;;1.30;99.90;;;;;;4976600;28;20863;-57
2021/12/21 10:53:47;;;;;;;8.00;6.33;;;1.30;99.90;;;;;;4982938;28;20492;-51
2021/12/21 10:56:18;;;;;;;6.50;5.90;;;1.20;99.90;;;;;;4982064;28;20469;-51
2021/12/21 10:58:46;;;;;;;6.80;6.23;;;1.40;99.90;;;;;;4980388;28;20547;-52
2021/12/21 11:01:19;;;;;;;5.73;5.33;;;1.30;99.90;;;;;;4981361;28;20464;-52
2021/12/21 11:03:50;;;;;;;6.60;5.97;;;1.40;99.90;;;;;;4980993;28;20953;-51
2021/12/21 11:06:19;;;;;;;6.13;5.63;;;1.50;99.90;;;;;;4984881;28;20464;-51
2021/12/21 11:08:48;;;;;;;6.60;5.30;;;1.50;99.90;;;;;;4986411;28;20469;-50
2021/12/21 11:11:29;;;;;;;6.10;5.50;;;1.20;99.90;;;;;;4982411;28;20464;-50
2021/12/21 11:14:04;;;;;;;5.37;5.03;;;1.30;99.90;;;;;;4984460;28;20573;-51
2021/12/21 11:16:43;;;;;;;5.73;5.23;;;1.40;99.90;;;;;;4975706;28;20484;-50
2021/12/21 11:19:11;;;;;;;5.93;5.33;;;1.30;99.90;;;;;;4982249;28;20492;-50
2021/12/21 11:21:38;;;;;;;7.00;5.20;;;1.40;99.90;;;;;;4983988;28;20920;-50
2021/12/21 11:24:08;;;;;;;6.30;5.70;;;1.30;99.90;;;;;;4985281;28;20575;-50
2021/12/21 11:26:36;;;;;;;6.30;5.70;;;1.40;99.90;;;;;;4982416;28;20551;-50
2021/12/21 11:29:05;;;;;;;6.37;5.80;;;1.40;99.90;;;;;;4980988;28;20504;-51
2021/12/21 11:31:37;;;;;;;9.17;6.43;;;1.40;99.90;;;;;;4987817;28;20904;-51
2021/12/21 11:34:07;;;;;;;7.83;7.03;;;1.40;99.90;;;;;;4988956;28;20493;-50
2021/12/21 11:39:19;;;;;;;7.27;5.50;;;1.50;99.90;;;;;;4993112;28;20436;-50
2021/12/21 11:41:45;;;;;;;6.73;5.73;;;1.50;99.90;;;;;;4992636;28;20463;-51
2021/12/21 11:44:20;;;;;;;6.30;5.50;;;1.40;99.90;;;;;;4998025;28;20895;-51
2021/12/21 11:46:54;;;;;;;5.87;5.40;;;1.40;99.90;;;;;;4992273;28;20547;-50
2021/12/21 11:49:30;;;;;;;6.70;5.50;;;1.40;99.90;;;;;;4993387;28;20973;-50
2021/12/21 11:52:14;;;;;;;6.60;5.93;;;1.30;99.90;;;;;;4989326;28;20456;-50
2021/12/21 11:54:47;;;;;;;8.57;6.67;;;1.30;99.90;;;;;;4983503;28;20487;-51
2021/12/21 11:57:14;;;;;;;7.77;5.70;;;1.40;99.90;;;;;;4984433;28;20496;-51
2021/12/21 11:59:40;;;;;;;9.60;5.60;;;1.10;99.90;;;;;;4986472;28;20964;-50
2021/12/21 12:02:08;;;;;;;10.20;5.87;;;1.10;99.90;;;;;;4985577;28;20496;-50
2021/12/21 12:04:35;;;;;;;11.40;7.67;;;1.20;99.90;;;;;;4987964;28;20994;-51
2021/12/21 12:07:13;;;;;;;10.03;7.07;;;1.10;99.90;;;;;;4988206;28;20472;-51
2021/12/21 12:09:39;;;;;;;6.47;5.83;;;1.20;99.90;;;;;;4982251;28;20547;-51
2021/12/21 12:12:07;;;;;;;6.57;5.97;;;1.10;99.90;;;;;;4981001;28;20547;-50
2021/12/21 12:14:36;;;;;;;7.20;6.60;;;1.10;99.90;;;;;;4986620;28;20579;-51
2021/12/21 12:17:10;;;;;;;10.90;7.57;;;1.20;99.90;;;;;;4984995;28;20523;-50
2021/12/21 12:19:41;;;;;;;9.73;7.40;;;1.20;99.90;;;;;;4981501;28;20564;-51
2021/12/21 12:22:12;;;;;;;7.90;7.10;;;1.30;99.90;;;;;;4983303;28;20579;-49
2021/12/21 12:24:41;;;;;;;7.93;7.23;;;1.30;99.90;;;;;;4991529;28;20479;-50
2021/12/21 12:27:11;;;;;;;9.70;7.10;;;1.30;99.90;;;;;;4991554;28;20480;-51
2021/12/21 12:29:49;;;;;;;9.37;8.40;;;1.30;99.90;;;;;;4981269;28;20556;-52
2021/12/21 12:32:16;;;;;;;17.53;13.37;;;1.20;99.90;;;;;;4987889;28;20525;-50
2021/12/21 12:34:44;;;;;;;8.20;7.40;;;1.20;99.90;;;;;;4985905;28;20519;-50
2021/12/21 12:37:18;;;;;;;12.73;7.20;;;1.10;99.90;;;;;;4988446;28;20465;-50
2021/12/21 12:39:46;;;;;;;8.33;7.53;;;1.10;99.90;;;;;;4985859;28;20514;-51
2021/12/21 12:42:17;;;;;;;7.93;6.77;;;1.10;99.90;;;;;;4988098;28;20543;-50
2021/12/21 12:44:45;;;;;;;10.83;8.47;;;1.10;99.90;;;;;;4985568;28;20566;-50
2021/12/21 12:47:14;;;;;;;9.43;8.60;;;1.10;99.90;;;;;;4984722;28;20464;-50
2021/12/21 12:49:52;;;;;;;12.67;11.37;;;1.10;99.90;;;;;;4986273;28;20461;-54
2021/12/21 12:52:24;;;;;;;13.73;11.23;;;1.00;99.90;;;;;;4986655;28;20453;-55
2021/12/21 12:54:53;;;;;;;9.37;8.30;;;1.20;99.90;;;;;;4987127;28;20476;-56
2021/12/21 12:57:33;;;;;;;12.47;9.90;;;1.10;99.90;;;;;;4989616;28;20531;-55
2021/12/21 13:00:11;;;;;;;10.63;8.90;;;1.10;99.90;;;;;;4977567;28;20473;-56
2021/12/21 13:02:39;;;;;;;8.63;7.73;;;1.10;99.90;;;;;;4984198;28;20484;-56
2021/12/21 13:05:10;;;;;;;14.03;9.27;;;1.10;99.90;;;;;;4985942;28;20543;-56
2021/12/21 13:07:37;;;;;;;12.10;8.53;;;1.10;99.90;;;;;;4978249;28;20953;-55
2021/12/21 13:10:07;;;;;;;21.27;14.93;;;1.20;99.90;;;;;;4986272;28;20464;-54
2021/12/21 13:12:35;;;;;;;11.77;10.23;;;1.10;99.90;;;;;;4981643;28;20547;-55
2021/12/21 13:15:01;;;;;;;11.70;9.20;;;1.10;97.40;;;;;;4990141;28;20543;-49
2021/12/21 13:17:28;;;;;;;28.43;17.60;;;1.10;99.90;;;;;;4986162;28;20568;-47
2021/12/21 13:19:55;;;;;;;13.17;9.60;;;1.20;95.00;;;;;;4984356;28;20508;-46
2021/12/21 13:22:24;;;;;;;14.33;9.07;;;1.20;94.60;;;;;;4987778;28;20496;-46
2021/12/21 13:24:52;;;;;;;17.93;13.00;;;1.30;93.70;;;;;;4985561;28;20564;-47
2021/12/21 13:27:23;;;;;;;18.03;12.37;;;1.20;99.80;;;;;;4977044;28;20472;-46
2021/12/21 13:29:50;;;;;;;17.20;12.20;;;1.20;99.90;;;;;;4985508;28;20597;-48